sensor_id;sensor_type;location;lat;lon;timestamp;temperature;humidity
46508;DHT22;32223;53.654;10.014;2023-04-06T00:01:21;0.80;99.90
46508;DHT22;32223;53.654;10.014;2023-04-06T00:03:47;0.80;99.90
46508;DHT22;32223;53.654;10.014;2023-04-06T00:06:13;0.80;99.90
46508;DHT22;32223;53.654;10.014;2023-04-06T00:08:38;0.80;99.90
46508;DHT22;32223;53.654;10.014;2023-04-06T00:11:04;0.80;99.90
46508;DHT22;32223;53.654;10.014;2023-04-06T00:13:30;0.70;99.90
46508;DHT22;32223;53.654;10.014;2023-04-06T00:15:55;0.70;99.90
46508;DHT22;32223;53.654;10.014;2023-04-06T00:18:21;0.70;99.90
46508;DHT22;32223;53.654;10.014;2023-04-06T00:20:47;0.70;99.90
46508;DHT22;32223;53.654;10.014;2023-04-06T00:23:13;0.60;99.90
46508;DHT22;32223;53.654;10.014;2023-04-06T00:25:38;0.60;99.90
46508;DHT22;32223;53.654;10.014;2023-04-06T00:28:04;0.60;99.90
46508;DHT22;32223;53.654;10.014;2023-04-06T00:30:30;0.50;99.90
46508;DHT22;32223;53.654;10.014;2023-04-06T00:32:55;0.50;99.90
46508;DHT22;32223;53.654;10.014;2023-04-06T00:35:21;0.50;99.90
46508;DHT22;32223;53.654;10.014;2023-04-06T00:37:47;0.60;99.90
46508;DHT22;32223;53.654;10.014;2023-04-06T00:40:15;0.50;99.90
46508;DHT22;32223;53.654;10.014;2023-04-06T00:42:41;0.60;99.90
46508;DHT22;32223;53.654;10.014;2023-04-06T00:45:08;0.60;99.90
46508;DHT22;32223;53.654;10.014;2023-04-06T00:47:33;0.60;99.90
46508;DHT22;32223;53.654;10.014;2023-04-06T00:49:59;0.50;99.90
46508;DHT22;32223;53.654;10.014;2023-04-06T00:52:25;0.50;99.90
46508;DHT22;32223;53.654;10.014;2023-04-06T00:54:51;0.50;99.90
46508;DHT22;32223;53.654;10.014;2023-04-06T00:57:17;0.50;99.90
46508;DHT22;32223;53.654;10.014;2023-04-06T00:59:43;0.60;99.90
46508;DHT22;32223;53.654;10.014;2023-04-06T01:02:10;0.60;99.90
46508;DHT22;32223;53.654;10.014;2023-04-06T01:04:35;0.50;99.90
46508;DHT22;32223;53.654;10.014;2023-04-06T01:07:01;0.50;99.90
46508;DHT22;32223;53.654;10.014;2023-04-06T01:09:30;0.50;99.90
46508;DHT22;32223;53.654;10.014;2023-04-06T01:11:57;0.40;99.90
46508;DHT22;32223;53.654;10.014;2023-04-06T01:14:23;0.40;99.90
46508;DHT22;32223;53.654;10.014;2023-04-06T01:16:49;0.30;99.90
46508;DHT22;32223;53.654;10.014;2023-04-06T01:19:15;0.30;99.90
46508;DHT22;32223;53.654;10.014;2023-04-06T01:21:41;0.30;99.90
46508;DHT22;32223;53.654;10.014;2023-04-06T01:24:07;0.30;99.90
46508;DHT22;32223;53.654;10.014;2023-04-06T01:26:34;0.30;99.90
46508;DHT22;32223;53.654;10.014;2023-04-06T01:29:00;0.30;99.90
46508;DHT22;32223;53.654;10.014;2023-04-06T01:31:26;0.30;99.90
46508;DHT22;32223;53.654;10.014;2023-04-06T01:33:52;0.30;99.90
46508;DHT22;32223;53.654;10.014;2023-04-06T01:36:19;0.30;99.90
46508;DHT22;32223;53.654;10.014;2023-04-06T01:38:45;0.30;99.90
46508;DHT22;32223;53.654;10.014;2023-04-06T01:41:10;0.30;99.90
46508;DHT22;32223;53.654;10.014;2023-04-06T01:43:36;0.30;99.90
46508;DHT22;32223;53.654;10.014;2023-04-06T01:46:02;0.30;99.90
46508;DHT22;32223;53.654;10.014;2023-04-06T01:48:28;0.30;99.90
46508;DHT22;32223;53.654;10.014;2023-04-06T01:50:54;0.30;99.90
46508;DHT22;32223;53.654;10.014;2023-04-06T01:53:20;0.30;99.90
46508;DHT22;32223;53.654;10.014;2023-04-06T01:55:46;0.30;99.90
46508;DHT22;32223;53.654;10.014;2023-04-06T01:58:12;0.30;99.90
46508;DHT22;32223;53.654;10.014;2023-04-06T02:00:38;0.30;99.90
46508;DHT22;32223;53.654;10.014;2023-04-06T02:03:03;0.30;99.90
46508;DHT22;32223;53.654;10.014;2023-04-06T02:05:31;0.20;99.90
46508;DHT22;32223;53.654;10.014;2023-04-06T02:07:58;0.20;99.90
46508;DHT22;32223;53.654;10.014;2023-04-06T02:10:24;0.30;99.90
46508;DHT22;32223;53.654;10.014;2023-04-06T02:12:50;0.20;99.90
46508;DHT22;32223;53.654;10.014;2023-04-06T02:15:16;0.20;99.90
46508;DHT22;32223;53.654;10.014;2023-04-06T02:17:42;0.30;99.90
46508;DHT22;32223;53.654;10.014;2023-04-06T02:20:08;0.30;99.90
46508;DHT22;32223;53.654;10.014;2023-04-06T02:22:37;0.30;99.90
46508;DHT22;32223;53.654;10.014;2023-04-06T02:25:03;0.30;99.90
46508;DHT22;32223;53.654;10.014;2023-04-06T02:27:28;0.20;99.90
46508;DHT22;32223;53.654;10.014;2023-04-06T02:29:54;0.20;99.90
46508;DHT22;32223;53.654;10.014;2023-04-06T02:32:20;0.20;99.90
46508;DHT22;32223;53.654;10.014;2023-04-06T02:34:45;0.20;99.90
46508;DHT22;32223;53.654;10.014;2023-04-06T02:37:11;0.20;99.90
46508;DHT22;32223;53.654;10.014;2023-04-06T02:39:37;0.20;99.90
46508;DHT22;32223;53.654;10.014;2023-04-06T02:42:02;0.20;99.90
46508;DHT22;32223;53.654;10.014;2023-04-06T02:44:28;0.10;99.90
46508;DHT22;32223;53.654;10.014;2023-04-06T02:46:53;0.10;99.90
46508;DHT22;32223;53.654;10.014;2023-04-06T02:49:19;0.10;99.90
46508;DHT22;32223;53.654;10.014;2023-04-06T02:51:45;0.00;99.90
46508;DHT22;32223;53.654;10.014;2023-04-06T02:54:10;0.00;99.90
46508;DHT22;32223;53.654;10.014;2023-04-06T02:56:36;0.00;99.90
46508;DHT22;32223;53.654;10.014;2023-04-06T02:59:02;-0.10;99.90
46508;DHT22;32223;53.654;10.014;2023-04-06T03:01:27;-0.10;99.90
46508;DHT22;32223;53.654;10.014;2023-04-06T03:03:53;-0.10;99.90
46508;DHT22;32223;53.654;10.014;2023-04-06T03:06:18;-0.20;99.90
46508;DHT22;32223;53.654;10.014;2023-04-06T03:08:44;-0.20;99.90
46508;DHT22;32223;53.654;10.014;2023-04-06T03:11:10;-0.20;99.90
46508;DHT22;32223;53.654;10.014;2023-04-06T03:13:37;-0.20;99.90
46508;DHT22;32223;53.654;10.014;2023-04-06T03:16:04;-0.20;99.90
46508;DHT22;32223;53.654;10.014;2023-04-06T03:18:31;-0.30;99.90
46508;DHT22;32223;53.654;10.014;2023-04-06T03:20:56;-0.30;99.90
46508;DHT22;32223;53.654;10.014;2023-04-06T03:23:22;-0.30;99.90
46508;DHT22;32223;53.654;10.014;2023-04-06T03:25:48;-0.40;99.90
46508;DHT22;32223;53.654;10.014;2023-04-06T03:28:14;-0.40;99.90
46508;DHT22;32223;53.654;10.014;2023-04-06T03:30:40;-0.40;99.90
46508;DHT22;32223;53.654;10.014;2023-04-06T03:33:05;-0.50;99.90
46508;DHT22;32223;53.654;10.014;2023-04-06T03:35:31;-0.50;99.90
46508;DHT22;32223;53.654;10.014;2023-04-06T03:37:57;-0.50;99.90
46508;DHT22;32223;53.654;10.014;2023-04-06T03:40:23;-0.50;99.90
46508;DHT22;32223;53.654;10.014;2023-04-06T03:42:48;-0.60;99.90
46508;DHT22;32223;53.654;10.014;2023-04-06T03:45:14;-0.70;99.90
46508;DHT22;32223;53.654;10.014;2023-04-06T03:47:40;-0.70;99.90
46508;DHT22;32223;53.654;10.014;2023-04-06T03:50:06;-0.70;99.90
46508;DHT22;32223;53.654;10.014;2023-04-06T03:52:32;-0.70;99.90
46508;DHT22;32223;53.654;10.014;2023-04-06T03:54:57;-0.70;99.90
46508;DHT22;32223;53.654;10.014;2023-04-06T03:57:23;-0.70;99.90
46508;DHT22;32223;53.654;10.014;2023-04-06T03:59:49;-0.70;99.90
46508;DHT22;32223;53.654;10.014;2023-04-06T04:02:15;-0.40;99.90
46508;DHT22;32223;53.654;10.014;2023-04-06T04:04:40;-0.20;99.90
46508;DHT22;32223;53.654;10.014;2023-04-06T04:07:06;0.00;99.90
46508;DHT22;32223;53.654;10.014;2023-04-06T04:09:32;0.00;99.90
46508;DHT22;32223;53.654;10.014;2023-04-06T04:11:57;0.10;99.90
46508;DHT22;32223;53.654;10.014;2023-04-06T04:14:23;0.20;99.90
46508;DHT22;32223;53.654;10.014;2023-04-06T04:16:49;0.20;99.90
46508;DHT22;32223;53.654;10.014;2023-04-06T04:19:14;0.20;99.90
46508;DHT22;32223;53.654;10.014;2023-04-06T04:21:44;0.00;99.90
46508;DHT22;32223;53.654;10.014;2023-04-06T04:24:10;-0.10;99.90
46508;DHT22;32223;53.654;10.014;2023-04-06T04:26:36;-0.30;99.90
46508;DHT22;32223;53.654;10.014;2023-04-06T04:29:02;-0.30;99.90
46508;DHT22;32223;53.654;10.014;2023-04-06T04:31:28;-0.40;99.90
46508;DHT22;32223;53.654;10.014;2023-04-06T04:33:53;-0.50;99.90
46508;DHT22;32223;53.654;10.014;2023-04-06T04:36:19;-0.60;99.90
46508;DHT22;32223;53.654;10.014;2023-04-06T04:38:45;-0.60;99.90
46508;DHT22;32223;53.654;10.014;2023-04-06T04:41:10;-0.60;99.90
46508;DHT22;32223;53.654;10.014;2023-04-06T04:43:36;-0.70;99.90
46508;DHT22;32223;53.654;10.014;2023-04-06T04:46:02;-0.70;99.90
46508;DHT22;32223;53.654;10.014;2023-04-06T04:48:29;-0.70;99.90
46508;DHT22;32223;53.654;10.014;2023-04-06T04:50:55;-0.70;99.90
46508;DHT22;32223;53.654;10.014;2023-04-06T04:53:20;-0.70;99.90
46508;DHT22;32223;53.654;10.014;2023-04-06T04:55:46;-0.80;99.90
46508;DHT22;32223;53.654;10.014;2023-04-06T04:58:12;-0.70;99.90
46508;DHT22;32223;53.654;10.014;2023-04-06T05:00:42;-0.70;99.90
46508;DHT22;32223;53.654;10.014;2023-04-06T05:03:08;-0.70;99.90
46508;DHT22;32223;53.654;10.014;2023-04-06T05:05:34;-0.70;99.90
46508;DHT22;32223;53.654;10.014;2023-04-06T05:07:59;-0.80;99.90
46508;DHT22;32223;53.654;10.014;2023-04-06T05:10:25;-0.70;99.90
46508;DHT22;32223;53.654;10.014;2023-04-06T05:12:51;-0.70;99.90
46508;DHT22;32223;53.654;10.014;2023-04-06T05:15:16;-0.70;99.90
46508;DHT22;32223;53.654;10.014;2023-04-06T05:17:42;-0.70;99.90
46508;DHT22;32223;53.654;10.014;2023-04-06T05:20:08;-0.70;99.90
46508;DHT22;32223;53.654;10.014;2023-04-06T05:22:34;-0.70;99.90
46508;DHT22;32223;53.654;10.014;2023-04-06T05:25:00;-0.60;99.90
46508;DHT22;32223;53.654;10.014;2023-04-06T05:27:26;-0.60;99.90
46508;DHT22;32223;53.654;10.014;2023-04-06T05:29:52;-0.60;99.90
46508;DHT22;32223;53.654;10.014;2023-04-06T05:32:17;-0.50;99.90
46508;DHT22;32223;53.654;10.014;2023-04-06T05:34:48;-0.50;99.90
46508;DHT22;32223;53.654;10.014;2023-04-06T05:37:14;-0.50;99.90
46508;DHT22;32223;53.654;10.014;2023-04-06T05:39:39;-0.50;99.90
46508;DHT22;32223;53.654;10.014;2023-04-06T05:42:05;-0.40;99.90
46508;DHT22;32223;53.654;10.014;2023-04-06T05:44:32;-0.40;99.90
46508;DHT22;32223;53.654;10.014;2023-04-06T05:46:57;-0.30;99.90
46508;DHT22;32223;53.654;10.014;2023-04-06T05:49:23;-0.20;99.90
46508;DHT22;32223;53.654;10.014;2023-04-06T05:51:49;-0.20;99.90
46508;DHT22;32223;53.654;10.014;2023-04-06T05:54:14;-0.10;99.90
46508;DHT22;32223;53.654;10.014;2023-04-06T05:56:40;-0.10;99.90
46508;DHT22;32223;53.654;10.014;2023-04-06T05:59:06;0.00;99.90
46508;DHT22;32223;53.654;10.014;2023-04-06T06:01:33;0.10;99.90
46508;DHT22;32223;53.654;10.014;2023-04-06T06:04:00;0.20;99.90
46508;DHT22;32223;53.654;10.014;2023-04-06T06:06:27;0.30;99.90
46508;DHT22;32223;53.654;10.014;2023-04-06T06:08:53;0.40;99.90
46508;DHT22;32223;53.654;10.014;2023-04-06T06:11:19;0.50;99.90
46508;DHT22;32223;53.654;10.014;2023-04-06T06:13:45;0.50;99.90
46508;DHT22;32223;53.654;10.014;2023-04-06T06:16:11;0.60;99.90
46508;DHT22;32223;53.654;10.014;2023-04-06T06:18:36;0.70;99.90
46508;DHT22;32223;53.654;10.014;2023-04-06T06:21:02;0.80;99.90
46508;DHT22;32223;53.654;10.014;2023-04-06T06:23:28;0.90;99.90
46508;DHT22;32223;53.654;10.014;2023-04-06T06:25:53;1.00;99.90
46508;DHT22;32223;53.654;10.014;2023-04-06T06:28:19;1.10;99.90
46508;DHT22;32223;53.654;10.014;2023-04-06T06:30:45;1.20;99.90
46508;DHT22;32223;53.654;10.014;2023-04-06T06:33:10;1.30;99.90
46508;DHT22;32223;53.654;10.014;2023-04-06T06:35:36;1.50;99.90
46508;DHT22;32223;53.654;10.014;2023-04-06T06:38:02;1.60;99.90
46508;DHT22;32223;53.654;10.014;2023-04-06T06:40:28;1.70;99.90
46508;DHT22;32223;53.654;10.014;2023-04-06T06:42:53;1.90;99.90
46508;DHT22;32223;53.654;10.014;2023-04-06T06:45:19;2.00;99.90
46508;DHT22;32223;53.654;10.014;2023-04-06T06:47:46;2.20;99.90
46508;DHT22;32223;53.654;10.014;2023-04-06T06:50:12;2.30;99.90
46508;DHT22;32223;53.654;10.014;2023-04-06T06:52:38;2.50;99.90
46508;DHT22;32223;53.654;10.014;2023-04-06T06:55:03;2.60;99.90
46508;DHT22;32223;53.654;10.014;2023-04-06T06:57:29;2.80;99.90
46508;DHT22;32223;53.654;10.014;2023-04-06T06:59:55;3.00;99.90
46508;DHT22;32223;53.654;10.014;2023-04-06T07:02:20;3.20;99.90
46508;DHT22;32223;53.654;10.014;2023-04-06T07:04:49;3.40;99.90
46508;DHT22;32223;53.654;10.014;2023-04-06T07:07:15;3.60;99.90
46508;DHT22;32223;53.654;10.014;2023-04-06T07:09:40;3.70;99.90
46508;DHT22;32223;53.654;10.014;2023-04-06T07:12:06;3.90;99.90
46508;DHT22;32223;53.654;10.014;2023-04-06T07:14:32;4.10;99.90
46508;DHT22;32223;53.654;10.014;2023-04-06T07:16:57;4.20;99.90
46508;DHT22;32223;53.654;10.014;2023-04-06T07:19:23;4.30;99.90
46508;DHT22;32223;53.654;10.014;2023-04-06T07:21:49;4.40;99.90
46508;DHT22;32223;53.654;10.014;2023-04-06T07:24:15;4.50;99.90
46508;DHT22;32223;53.654;10.014;2023-04-06T07:26:41;4.70;99.90
46508;DHT22;32223;53.654;10.014;2023-04-06T07:29:07;4.80;99.90
46508;DHT22;32223;53.654;10.014;2023-04-06T07:31:33;4.90;99.90
46508;DHT22;32223;53.654;10.014;2023-04-06T07:33:58;5.00;99.90
46508;DHT22;32223;53.654;10.014;2023-04-06T07:36:24;5.10;99.90
46508;DHT22;32223;53.654;10.014;2023-04-06T07:38:50;5.20;99.90
46508;DHT22;32223;53.654;10.014;2023-04-06T07:41:16;5.30;99.90
46508;DHT22;32223;53.654;10.014;2023-04-06T07:43:42;5.40;99.90
46508;DHT22;32223;53.654;10.014;2023-04-06T07:46:07;5.60;99.90
46508;DHT22;32223;53.654;10.014;2023-04-06T07:48:33;5.70;99.90
46508;DHT22;32223;53.654;10.014;2023-04-06T07:51:03;5.90;99.90
46508;DHT22;32223;53.654;10.014;2023-04-06T07:53:28;6.00;99.90
46508;DHT22;32223;53.654;10.014;2023-04-06T07:55:54;6.10;99.90
46508;DHT22;32223;53.654;10.014;2023-04-06T07:58:21;6.20;99.90
46508;DHT22;32223;53.654;10.014;2023-04-06T08:00:47;6.40;99.90
46508;DHT22;32223;53.654;10.014;2023-04-06T08:03:12;6.40;99.90
46508;DHT22;32223;53.654;10.014;2023-04-06T08:05:38;6.50;99.90
46508;DHT22;32223;53.654;10.014;2023-04-06T08:08:04;6.60;99.90
46508;DHT22;32223;53.654;10.014;2023-04-06T08:10:29;6.70;99.90
46508;DHT22;32223;53.654;10.014;2023-04-06T08:12:55;6.90;99.90
46508;DHT22;32223;53.654;10.014;2023-04-06T08:15:21;6.90;99.90
46508;DHT22;32223;53.654;10.014;2023-04-06T08:17:46;7.00;99.90
46508;DHT22;32223;53.654;10.014;2023-04-06T08:20:12;7.10;99.90
46508;DHT22;32223;53.654;10.014;2023-04-06T08:22:38;7.20;99.90
46508;DHT22;32223;53.654;10.014;2023-04-06T08:25:03;7.30;99.90
46508;DHT22;32223;53.654;10.014;2023-04-06T08:27:29;7.30;99.90
46508;DHT22;32223;53.654;10.014;2023-04-06T08:29:55;7.50;99.90
46508;DHT22;32223;53.654;10.014;2023-04-06T08:32:20;7.50;99.90
46508;DHT22;32223;53.654;10.014;2023-04-06T08:34:46;7.70;99.90
46508;DHT22;32223;53.654;10.014;2023-04-06T08:37:12;7.80;99.90
46508;DHT22;32223;53.654;10.014;2023-04-06T08:39:38;7.90;99.90
46508;DHT22;32223;53.654;10.014;2023-04-06T08:42:03;7.90;99.90
46508;DHT22;32223;53.654;10.014;2023-04-06T08:44:30;8.00;99.90
46508;DHT22;32223;53.654;10.014;2023-04-06T08:46:57;8.10;99.90
46508;DHT22;32223;53.654;10.014;2023-04-06T08:49:24;8.10;99.90
46508;DHT22;32223;53.654;10.014;2023-04-06T08:51:50;8.20;99.90
46508;DHT22;32223;53.654;10.014;2023-04-06T08:54:16;8.30;99.90
46508;DHT22;32223;53.654;10.014;2023-04-06T08:56:42;8.40;99.90
46508;DHT22;32223;53.654;10.014;2023-04-06T08:59:09;8.40;99.80
46508;DHT22;32223;53.654;10.014;2023-04-06T09:01:39;8.40;99.10
46508;DHT22;32223;53.654;10.014;2023-04-06T09:04:07;8.40;98.00
46508;DHT22;32223;53.654;10.014;2023-04-06T09:06:36;8.40;98.60
46508;DHT22;32223;53.654;10.014;2023-04-06T09:09:02;8.50;97.30
46508;DHT22;32223;53.654;10.014;2023-04-06T09:11:28;8.50;97.10
46508;DHT22;32223;53.654;10.014;2023-04-06T09:13:55;8.50;97.30
46508;DHT22;32223;53.654;10.014;2023-04-06T09:16:22;8.70;96.60
46508;DHT22;32223;53.654;10.014;2023-04-06T09:18:49;8.90;96.70
46508;DHT22;32223;53.654;10.014;2023-04-06T09:21:17;9.00;96.60
46508;DHT22;32223;53.654;10.014;2023-04-06T09:23:44;9.10;96.00
46508;DHT22;32223;53.654;10.014;2023-04-06T09:26:12;9.10;95.00
46508;DHT22;32223;53.654;10.014;2023-04-06T09:28:55;9.20;95.10
46508;DHT22;32223;53.654;10.014;2023-04-06T09:31:25;9.10;94.90
46508;DHT22;32223;53.654;10.014;2023-04-06T09:33:51;9.20;94.10
46508;DHT22;32223;53.654;10.014;2023-04-06T09:36:17;9.30;93.40
46508;DHT22;32223;53.654;10.014;2023-04-06T09:38:57;9.40;93.20
46508;DHT22;32223;53.654;10.014;2023-04-06T09:41:34;9.50;92.20
46508;DHT22;32223;53.654;10.014;2023-04-06T09:44:11;9.50;91.80
46508;DHT22;32223;53.654;10.014;2023-04-06T09:46:38;9.70;91.80
46508;DHT22;32223;53.654;10.014;2023-04-06T09:49:06;9.70;91.70
46508;DHT22;32223;53.654;10.014;2023-04-06T09:51:39;9.70;91.50
46508;DHT22;32223;53.654;10.014;2023-04-06T09:54:07;9.90;92.40
46508;DHT22;32223;53.654;10.014;2023-04-06T09:59:58;10.00;89.90
46508;DHT22;32223;53.654;10.014;2023-04-06T10:05:37;10.00;89.70
46508;DHT22;32223;53.654;10.014;2023-04-06T10:08:10;9.90;90.00
46508;DHT22;32223;53.654;10.014;2023-04-06T10:10:37;9.90;91.60
46508;DHT22;32223;53.654;10.014;2023-04-06T10:13:04;9.90;90.50
46508;DHT22;32223;53.654;10.014;2023-04-06T10:15:30;10.00;90.80
46508;DHT22;32223;53.654;10.014;2023-04-06T10:17:58;9.90;91.20
46508;DHT22;32223;53.654;10.014;2023-04-06T10:23:16;10.10;91.40
46508;DHT22;32223;53.654;10.014;2023-04-06T10:25:59;10.20;92.10
46508;DHT22;32223;53.654;10.014;2023-04-06T10:28:26;10.30;91.20
46508;DHT22;32223;53.654;10.014;2023-04-06T10:30:59;10.50;92.30
46508;DHT22;32223;53.654;10.014;2023-04-06T10:33:25;10.60;91.50
46508;DHT22;32223;53.654;10.014;2023-04-06T10:35:51;10.70;89.70
46508;DHT22;32223;53.654;10.014;2023-04-06T10:38:18;10.80;88.30
46508;DHT22;32223;53.654;10.014;2023-04-06T10:40:47;10.90;86.50
46508;DHT22;32223;53.654;10.014;2023-04-06T10:43:19;11.00;85.20
46508;DHT22;32223;53.654;10.014;2023-04-06T10:45:44;11.00;86.00
46508;DHT22;32223;53.654;10.014;2023-04-06T10:50:42;11.00;82.70
46508;DHT22;32223;53.654;10.014;2023-04-06T10:53:08;11.10;81.90
46508;DHT22;32223;53.654;10.014;2023-04-06T10:55:34;11.10;82.60
46508;DHT22;32223;53.654;10.014;2023-04-06T10:58:06;11.20;84.30
46508;DHT22;32223;53.654;10.014;2023-04-06T11:00:32;11.30;81.80
46508;DHT22;32223;53.654;10.014;2023-04-06T11:03:01;11.30;80.70
46508;DHT22;32223;53.654;10.014;2023-04-06T11:05:27;11.30;81.40
46508;DHT22;32223;53.654;10.014;2023-04-06T11:07:53;11.50;83.20
46508;DHT22;32223;53.654;10.014;2023-04-06T11:10:22;11.60;81.60
46508;DHT22;32223;53.654;10.014;2023-04-06T11:12:57;11.60;79.80
46508;DHT22;32223;53.654;10.014;2023-04-06T11:15:23;11.70;80.00
46508;DHT22;32223;53.654;10.014;2023-04-06T11:17:49;12.00;81.10
46508;DHT22;32223;53.654;10.014;2023-04-06T11:20:15;12.10;77.50
46508;DHT22;32223;53.654;10.014;2023-04-06T11:22:53;12.10;78.30
46508;DHT22;32223;53.654;10.014;2023-04-06T11:25:19;12.30;78.30
46508;DHT22;32223;53.654;10.014;2023-04-06T11:27:46;12.30;79.40
46508;DHT22;32223;53.654;10.014;2023-04-06T11:30:13;12.30;78.90
46508;DHT22;32223;53.654;10.014;2023-04-06T11:32:44;12.40;78.30
46508;DHT22;32223;53.654;10.014;2023-04-06T11:35:20;12.50;78.20
46508;DHT22;32223;53.654;10.014;2023-04-06T11:37:48;12.70;76.90
46508;DHT22;32223;53.654;10.014;2023-04-06T11:40:13;12.80;76.70
46508;DHT22;32223;53.654;10.014;2023-04-06T11:42:39;12.90;75.70
46508;DHT22;32223;53.654;10.014;2023-04-06T11:45:07;12.80;74.50
46508;DHT22;32223;53.654;10.014;2023-04-06T11:47:35;12.60;73.60
46508;DHT22;32223;53.654;10.014;2023-04-06T11:50:13;12.60;73.40
46508;DHT22;32223;53.654;10.014;2023-04-06T11:52:40;12.60;73.90
46508;DHT22;32223;53.654;10.014;2023-04-06T11:55:18;13.00;75.40
46508;DHT22;32223;53.654;10.014;2023-04-06T11:57:44;13.10;73.90
46508;DHT22;32223;53.654;10.014;2023-04-06T12:00:11;13.10;74.00
46508;DHT22;32223;53.654;10.014;2023-04-06T12:02:38;13.30;73.50
46508;DHT22;32223;53.654;10.014;2023-04-06T12:05:05;13.60;75.80
46508;DHT22;32223;53.654;10.014;2023-04-06T12:07:31;13.90;72.80
46508;DHT22;32223;53.654;10.014;2023-04-06T12:09:58;14.00;72.50
46508;DHT22;32223;53.654;10.014;2023-04-06T12:12:24;14.00;73.10
46508;DHT22;32223;53.654;10.014;2023-04-06T12:14:50;14.10;71.70
46508;DHT22;32223;53.654;10.014;2023-04-06T12:17:17;14.20;70.70
46508;DHT22;32223;53.654;10.014;2023-04-06T12:19:43;14.40;73.80
46508;DHT22;32223;53.654;10.014;2023-04-06T12:22:08;14.70;73.30
46508;DHT22;32223;53.654;10.014;2023-04-06T12:24:34;14.90;69.50
46508;DHT22;32223;53.654;10.014;2023-04-06T12:27:00;14.80;66.80
46508;DHT22;32223;53.654;10.014;2023-04-06T12:29:26;14.80;66.80
46508;DHT22;32223;53.654;10.014;2023-04-06T12:31:52;14.90;65.80
46508;DHT22;32223;53.654;10.014;2023-04-06T12:34:18;15.30;67.20
46508;DHT22;32223;53.654;10.014;2023-04-06T12:36:44;15.30;66.00
46508;DHT22;32223;53.654;10.014;2023-04-06T12:39:10;15.30;66.40
46508;DHT22;32223;53.654;10.014;2023-04-06T12:41:36;15.40;65.90
46508;DHT22;32223;53.654;10.014;2023-04-06T12:44:02;16.00;66.70
46508;DHT22;32223;53.654;10.014;2023-04-06T12:46:29;16.50;63.40
46508;DHT22;32223;53.654;10.014;2023-04-06T12:48:58;17.00;61.80
46508;DHT22;32223;53.654;10.014;2023-04-06T12:51:27;17.70;61.70
46508;DHT22;32223;53.654;10.014;2023-04-06T12:53:53;18.10;60.10
46508;DHT22;32223;53.654;10.014;2023-04-06T12:56:19;18.50;59.50
46508;DHT22;32223;53.654;10.014;2023-04-06T12:58:46;18.90;58.30
46508;DHT22;32223;53.654;10.014;2023-04-06T13:01:12;19.10;57.40
46508;DHT22;32223;53.654;10.014;2023-04-06T13:03:39;18.90;56.00
46508;DHT22;32223;53.654;10.014;2023-04-06T13:06:05;19.10;55.90
46508;DHT22;32223;53.654;10.014;2023-04-06T13:08:31;19.50;55.10
46508;DHT22;32223;53.654;10.014;2023-04-06T13:10:56;20.00;54.10
46508;DHT22;32223;53.654;10.014;2023-04-06T13:13:27;19.90;54.40
46508;DHT22;32223;53.654;10.014;2023-04-06T13:15:54;20.20;52.20
46508;DHT22;32223;53.654;10.014;2023-04-06T13:18:21;19.70;52.10
46508;DHT22;32223;53.654;10.014;2023-04-06T13:20:48;19.70;52.80
46508;DHT22;32223;53.654;10.014;2023-04-06T13:23:14;20.20;53.60
46508;DHT22;32223;53.654;10.014;2023-04-06T13:25:40;20.50;52.30
46508;DHT22;32223;53.654;10.014;2023-04-06T13:28:05;20.70;51.80
46508;DHT22;32223;53.654;10.014;2023-04-06T13:30:31;21.00;50.80
46508;DHT22;32223;53.654;10.014;2023-04-06T13:32:57;20.80;51.50
46508;DHT22;32223;53.654;10.014;2023-04-06T13:35:23;20.60;50.60
46508;DHT22;32223;53.654;10.014;2023-04-06T13:37:49;20.60;50.30
46508;DHT22;32223;53.654;10.014;2023-04-06T13:40:18;20.40;49.20
46508;DHT22;32223;53.654;10.014;2023-04-06T13:42:44;20.60;50.60
46508;DHT22;32223;53.654;10.014;2023-04-06T13:45:11;20.80;49.90
46508;DHT22;32223;53.654;10.014;2023-04-06T13:47:37;21.30;49.10
46508;DHT22;32223;53.654;10.014;2023-04-06T13:50:03;21.00;48.50
46508;DHT22;32223;53.654;10.014;2023-04-06T13:52:29;20.90;50.10
46508;DHT22;32223;53.654;10.014;2023-04-06T13:54:55;21.30;49.20
46508;DHT22;32223;53.654;10.014;2023-04-06T13:57:21;21.10;48.60
46508;DHT22;32223;53.654;10.014;2023-04-06T13:59:46;21.20;50.10
46508;DHT22;32223;53.654;10.014;2023-04-06T14:02:12;21.70;47.50
46508;DHT22;32223;53.654;10.014;2023-04-06T14:04:38;21.70;47.10
46508;DHT22;32223;53.654;10.014;2023-04-06T14:07:04;21.80;47.10
46508;DHT22;32223;53.654;10.014;2023-04-06T14:09:32;21.40;48.60
46508;DHT22;32223;53.654;10.014;2023-04-06T14:11:58;21.40;48.30
46508;DHT22;32223;53.654;10.014;2023-04-06T14:14:23;21.90;48.00
46508;DHT22;32223;53.654;10.014;2023-04-06T14:16:49;22.30;48.30
46508;DHT22;32223;53.654;10.014;2023-04-06T14:19:16;22.50;47.10
46508;DHT22;32223;53.654;10.014;2023-04-06T14:21:43;22.40;47.20
46508;DHT22;32223;53.654;10.014;2023-04-06T14:24:09;22.20;46.10
46508;DHT22;32223;53.654;10.014;2023-04-06T14:26:35;21.60;47.50
46508;DHT22;32223;53.654;10.014;2023-04-06T14:29:02;21.30;47.20
46508;DHT22;32223;53.654;10.014;2023-04-06T14:31:29;21.00;47.90
46508;DHT22;32223;53.654;10.014;2023-04-06T14:33:55;21.10;46.70
46508;DHT22;32223;53.654;10.014;2023-04-06T14:36:21;21.60;47.30
46508;DHT22;32223;53.654;10.014;2023-04-06T14:38:46;21.20;47.00
46508;DHT22;32223;53.654;10.014;2023-04-06T14:41:20;20.90;47.80
46508;DHT22;32223;53.654;10.014;2023-04-06T14:43:47;20.90;47.90
46508;DHT22;32223;53.654;10.014;2023-04-06T14:46:13;20.70;47.00
46508;DHT22;32223;53.654;10.014;2023-04-06T14:48:38;20.80;47.10
46508;DHT22;32223;53.654;10.014;2023-04-06T14:51:04;20.90;47.90
46508;DHT22;32223;53.654;10.014;2023-04-06T14:53:30;21.20;46.70
46508;DHT22;32223;53.654;10.014;2023-04-06T14:55:56;20.60;47.50
46508;DHT22;32223;53.654;10.014;2023-04-06T14:58:23;20.60;48.30
46508;DHT22;32223;53.654;10.014;2023-04-06T15:00:49;20.70;47.80
46508;DHT22;32223;53.654;10.014;2023-04-06T15:03:20;20.60;47.50
46508;DHT22;32223;53.654;10.014;2023-04-06T15:05:46;20.30;47.70
46508;DHT22;32223;53.654;10.014;2023-04-06T15:08:11;20.10;47.10
46508;DHT22;32223;53.654;10.014;2023-04-06T15:10:39;20.20;47.50
46508;DHT22;32223;53.654;10.014;2023-04-06T15:13:04;20.30;48.00
46508;DHT22;32223;53.654;10.014;2023-04-06T15:15:30;20.50;48.00
46508;DHT22;32223;53.654;10.014;2023-04-06T15:17:56;20.30;48.00
46508;DHT22;32223;53.654;10.014;2023-04-06T15:20:21;20.10;47.70
46508;DHT22;32223;53.654;10.014;2023-04-06T15:22:47;19.60;48.20
46508;DHT22;32223;53.654;10.014;2023-04-06T15:25:13;19.50;48.20
46508;DHT22;32223;53.654;10.014;2023-04-06T15:27:40;19.70;48.30
46508;DHT22;32223;53.654;10.014;2023-04-06T15:30:06;19.60;48.60